Simla, Colorado
Current Conditions -  °F | °C
As of 8:55 PM on Thursday 18 Dec 2014 (Local Time) from KLIC Reporting Station
Clear Clear  
Wind Chill: 18°   Ceiling: Unl
Heat Index: 18°   Visibility: 10mi
Dew Point: 16°   Wind: 3mph
Humidity: 92%   Direction: 10°N
Pressure: 30.09"   Gusts: NA
Location:  39.14°N, 104.08°W
Report Text: KLIC 190355Z AUTO 01003KT 10SM CLR M08/M09 A3009 RMK AO2 SLP223 T10781089
Loading
Personal Weather Stations






























Interactive Weather Map New forecast layout! Learn more

10-Day Weather Forecast

Advertisements
Track Severe Weather on mobile